TDPDTLPL

Guest
Details From TDPD - Dominica/Melville Hall
To TLPL - St. Lucia/Hewanorra Intl
Flight Number -
Tags generated
Created
Modified
Stats Distance 111 nm / 205 km
Max Altitude 3,600 ft / 1,097 m
Waypoints 3
Social Downloads 0
Likes 0
Share VATSIM

Download

Looking for another format? Having issues loading an existing format? Contact us
Advertisement - Login to hide

Notes

Basic altitude profile: - Ascent Rate: 2500ft/min - Ascent Speed: 250kts - Cruise Altitude: 35000ft - Cruise Speed: 420kts - Descent Rate: 1500ft/min - Descent Speed: 250kts Options: - Use NATs: yes - Use PACOTS: yes - Use low airways: yes - Use high airways: yes

Route

TDPD SLU TLPL

ID Type Via Altitude Latitude Longitude Leg Dist Tot Dist Heading (true) Name
O TDPD APT - 0 ft / 0 m 15.54680˚ -61.30063˚ - 0 nm - Dominica/Melville Hall
SLU NDB - 3,600 ft / 1,097 m 14.01414˚ -61.00606˚ 93 nm 93 nm 169° / 170° VIGIE NDB
O TLPL APT - 0 ft / 0 m 13.73319˚ -60.95260˚ 17 nm 110 nm 170° / 170° St. Lucia/Hewanorra Intl

Altitude Profile

Advertisement - Login to hide

TDPD

Details ICAO TDPD (DOM)
Name Dominica/Melville Hall
Region Dominica
Timezone America/Dominica (UTC-4.0)
Stats Elevation 73 ft / 22 m (AMSL)
Location 15.546804° -61.300626°
Runways 1
Magnetic Variation 14.942° W

METAR

TDPD 151200Z 07010KT 9999 BKN015 27/21 Q1018

Decode

TAF

Not found

Departure Runways

ID Width Length Bearing (true) Bearing (mag) Surface Threshold Offset Overrun Length
09 148 ft / 45 m 5,254 ft / 1,601 m 69.89° 84.83° Asphalt 650 ft / 198 m 0 ft / 0 m
27 148 ft / 45 m 5,254 ft / 1,601 m 249.89° 264.83° Asphalt 0 ft / 0 m 0 ft / 0 m

TLPL

Details ICAO TLPL (UVF)
Name St. Lucia/Hewanorra Intl
Region Saint Lucia
Timezone America/St_Lucia (UTC-4.0)
Stats Elevation 14 ft / 4 m (AMSL)
Location 13.733194° -60.952599°
Runways 1
Magnetic Variation 15.092° W

METAR

TLPL 151200Z 08011KT 9999 FEW024 SCT042 28/22 Q1016 NOSIG

Decode

TAF

TAF TLPL 150500Z 1506/1606 08015KT 9999 SCT025 TEMPO 1512/1524 SHRA BKN018

Decode

Destination Runways

ID Width Length Bearing (true) Bearing (mag) Surface Threshold Offset Overrun Length
10 148 ft / 45 m 8,979 ft / 2,737 m 90.01° 105.10° Asphalt 0 ft / 0 m 200 ft / 61 m
28 148 ft / 45 m 8,979 ft / 2,737 m 270.01° 285.10° Asphalt 459 ft / 140 m 0 ft / 0 m